sensor_id;sensor_type;location;lat;lon;timestamp;temperature;humidity
39601;DHT22;25297;44.758;11.310;2023-11-19T00:00:29;10.70;75.70
39601;DHT22;25297;44.758;11.310;2023-11-19T00:02:55;10.70;75.90
39601;DHT22;25297;44.758;11.310;2023-11-19T00:05:20;10.70;75.80
39601;DHT22;25297;44.758;11.310;2023-11-19T00:07:46;10.70;76.50
39601;DHT22;25297;44.758;11.310;2023-11-19T00:10:13;10.80;76.50
39601;DHT22;25297;44.758;11.310;2023-11-19T00:12:43;10.80;76.90
39601;DHT22;25297;44.758;11.310;2023-11-19T00:15:13;10.70;76.50
39601;DHT22;25297;44.758;11.310;2023-11-19T00:17:44;10.70;75.80
39601;DHT22;25297;44.758;11.310;2023-11-19T00:22:39;10.60;75.30
39601;DHT22;25297;44.758;11.310;2023-11-19T00:25:05;10.60;75.30
39601;DHT22;25297;44.758;11.310;2023-11-19T00:27:31;10.50;76.20
39601;DHT22;25297;44.758;11.310;2023-11-19T00:29:57;10.60;75.90
39601;DHT22;25297;44.758;11.310;2023-11-19T00:32:23;10.50;76.40
39601;DHT22;25297;44.758;11.310;2023-11-19T00:34:49;10.50;76.20
39601;DHT22;25297;44.758;11.310;2023-11-19T00:37:15;10.50;76.90
39601;DHT22;25297;44.758;11.310;2023-11-19T00:39:44;10.50;77.10
39601;DHT22;25297;44.758;11.310;2023-11-19T00:42:11;10.50;76.90
39601;DHT22;25297;44.758;11.310;2023-11-19T00:44:36;10.50;76.60
39601;DHT22;25297;44.758;11.310;2023-11-19T00:47:02;10.60;77.10
39601;DHT22;25297;44.758;11.310;2023-11-19T00:49:28;10.60;76.90
39601;DHT22;25297;44.758;11.310;2023-11-19T00:51:54;10.60;76.60
39601;DHT22;25297;44.758;11.310;2023-11-19T00:54:20;10.50;76.40
39601;DHT22;25297;44.758;11.310;2023-11-19T00:56:45;10.50;76.00
39601;DHT22;25297;44.758;11.310;2023-11-19T00:59:11;10.50;76.00
39601;DHT22;25297;44.758;11.310;2023-11-19T01:01:36;10.50;76.00
39601;DHT22;25297;44.758;11.310;2023-11-19T01:04:02;10.40;75.90
39601;DHT22;25297;44.758;11.310;2023-11-19T01:06:29;10.40;75.90
39601;DHT22;25297;44.758;11.310;2023-11-19T01:08:55;10.40;76.60
39601;DHT22;25297;44.758;11.310;2023-11-19T01:11:22;10.40;76.60
39601;DHT22;25297;44.758;11.310;2023-11-19T01:13:48;10.40;76.50
39601;DHT22;25297;44.758;11.310;2023-11-19T01:16:14;10.40;76.60
39601;DHT22;25297;44.758;11.310;2023-11-19T01:18:40;10.40;76.80
39601;DHT22;25297;44.758;11.310;2023-11-19T01:21:05;10.50;76.50
39601;DHT22;25297;44.758;11.310;2023-11-19T01:23:31;10.50;76.60
39601;DHT22;25297;44.758;11.310;2023-11-19T01:25:58;10.40;76.20
39601;DHT22;25297;44.758;11.310;2023-11-19T01:28:24;10.50;77.10
39601;DHT22;25297;44.758;11.310;2023-11-19T01:30:52;10.50;76.90
39601;DHT22;25297;44.758;11.310;2023-11-19T01:33:18;10.50;77.50
39601;DHT22;25297;44.758;11.310;2023-11-19T01:35:44;10.40;77.60
39601;DHT22;25297;44.758;11.310;2023-11-19T01:38:09;10.40;77.50
39601;DHT22;25297;44.758;11.310;2023-11-19T01:40:36;10.50;77.80
39601;DHT22;25297;44.758;11.310;2023-11-19T01:43:02;10.50;78.20
39601;DHT22;25297;44.758;11.310;2023-11-19T01:45:30;10.60;78.10
39601;DHT22;25297;44.758;11.310;2023-11-19T01:47:57;10.60;77.80
39601;DHT22;25297;44.758;11.310;2023-11-19T01:50:24;10.60;77.80
39601;DHT22;25297;44.758;11.310;2023-11-19T01:52:54;10.70;77.10
39601;DHT22;25297;44.758;11.310;2023-11-19T01:55:24;10.70;76.60
39601;DHT22;25297;44.758;11.310;2023-11-19T01:57:53;10.70;76.60
39601;DHT22;25297;44.758;11.310;2023-11-19T02:00:19;10.70;76.50
39601;DHT22;25297;44.758;11.310;2023-11-19T02:02:46;10.70;76.50
39601;DHT22;25297;44.758;11.310;2023-11-19T02:05:13;10.70;76.20
39601;DHT22;25297;44.758;11.310;2023-11-19T02:07:40;10.70;76.10
39601;DHT22;25297;44.758;11.310;2023-11-19T02:10:06;10.70;75.50
39601;DHT22;25297;44.758;11.310;2023-11-19T02:12:40;10.80;75.30
39601;DHT22;25297;44.758;11.310;2023-11-19T02:15:09;10.70;75.40
39601;DHT22;25297;44.758;11.310;2023-11-19T02:17:35;10.70;75.40
39601;DHT22;25297;44.758;11.310;2023-11-19T02:20:03;10.70;75.60
39601;DHT22;25297;44.758;11.310;2023-11-19T02:22:31;10.70;75.70
39601;DHT22;25297;44.758;11.310;2023-11-19T02:25:00;10.60;74.80
39601;DHT22;25297;44.758;11.310;2023-11-19T02:27:53;10.60;75.20
39601;DHT22;25297;44.758;11.310;2023-11-19T02:30:21;10.60;75.80
39601;DHT22;25297;44.758;11.310;2023-11-19T02:32:55;10.60;75.90
39601;DHT22;25297;44.758;11.310;2023-11-19T02:35:23;10.60;75.30
39601;DHT22;25297;44.758;11.310;2023-11-19T02:37:49;10.60;75.20
39601;DHT22;25297;44.758;11.310;2023-11-19T02:40:14;10.60;75.40
39601;DHT22;25297;44.758;11.310;2023-11-19T02:42:40;10.60;75.50
39601;DHT22;25297;44.758;11.310;2023-11-19T02:45:07;10.60;75.80
39601;DHT22;25297;44.758;11.310;2023-11-19T02:47:33;10.60;75.80
39601;DHT22;25297;44.758;11.310;2023-11-19T02:49:59;10.50;75.60
39601;DHT22;25297;44.758;11.310;2023-11-19T02:52:25;10.60;75.60
39601;DHT22;25297;44.758;11.310;2023-11-19T02:54:51;10.50;75.30
39601;DHT22;25297;44.758;11.310;2023-11-19T02:57:18;10.50;76.00
39601;DHT22;25297;44.758;11.310;2023-11-19T02:59:46;10.50;76.10
39601;DHT22;25297;44.758;11.310;2023-11-19T03:02:12;10.40;76.30
39601;DHT22;25297;44.758;11.310;2023-11-19T03:04:38;10.40;76.60
39601;DHT22;25297;44.758;11.310;2023-11-19T03:07:05;10.40;76.80
39601;DHT22;25297;44.758;11.310;2023-11-19T03:09:31;10.40;76.60
39601;DHT22;25297;44.758;11.310;2023-11-19T03:11:57;10.40;76.40
39601;DHT22;25297;44.758;11.310;2023-11-19T03:14:22;10.40;75.90
39601;DHT22;25297;44.758;11.310;2023-11-19T03:16:48;10.30;76.30
39601;DHT22;25297;44.758;11.310;2023-11-19T03:19:14;10.30;77.30
39601;DHT22;25297;44.758;11.310;2023-11-19T03:21:40;10.30;77.20
39601;DHT22;25297;44.758;11.310;2023-11-19T03:24:06;10.30;77.40
39601;DHT22;25297;44.758;11.310;2023-11-19T03:26:34;10.30;77.40
39601;DHT22;25297;44.758;11.310;2023-11-19T03:29:00;10.30;76.90
39601;DHT22;25297;44.758;11.310;2023-11-19T03:31:26;10.20;76.70
39601;DHT22;25297;44.758;11.310;2023-11-19T03:33:51;10.20;76.80
39601;DHT22;25297;44.758;11.310;2023-11-19T03:36:17;10.20;76.50
39601;DHT22;25297;44.758;11.310;2023-11-19T03:38:43;10.20;76.30
39601;DHT22;25297;44.758;11.310;2023-11-19T03:41:15;10.20;76.10
39601;DHT22;25297;44.758;11.310;2023-11-19T03:43:41;10.10;76.70
39601;DHT22;25297;44.758;11.310;2023-11-19T03:46:20;10.10;77.10
39601;DHT22;25297;44.758;11.310;2023-11-19T03:48:49;10.20;77.30
39601;DHT22;25297;44.758;11.310;2023-11-19T03:51:16;10.20;77.20
39601;DHT22;25297;44.758;11.310;2023-11-19T03:53:43;10.10;76.80
39601;DHT22;25297;44.758;11.310;2023-11-19T03:56:10;10.20;77.00
39601;DHT22;25297;44.758;11.310;2023-11-19T03:58:36;10.20;76.70
39601;DHT22;25297;44.758;11.310;2023-11-19T04:01:04;10.20;76.80
39601;DHT22;25297;44.758;11.310;2023-11-19T04:03:29;10.10;76.70
39601;DHT22;25297;44.758;11.310;2023-11-19T04:05:55;10.10;75.90
39601;DHT22;25297;44.758;11.310;2023-11-19T04:08:21;10.10;76.40
39601;DHT22;25297;44.758;11.310;2023-11-19T04:10:47;10.10;76.40
39601;DHT22;25297;44.758;11.310;2023-11-19T04:13:13;10.00;76.40
39601;DHT22;25297;44.758;11.310;2023-11-19T04:15:39;9.90;75.90
39601;DHT22;25297;44.758;11.310;2023-11-19T04:18:05;10.00;76.30
39601;DHT22;25297;44.758;11.310;2023-11-19T04:20:30;9.90;76.40
39601;DHT22;25297;44.758;11.310;2023-11-19T04:22:57;9.90;76.50
39601;DHT22;25297;44.758;11.310;2023-11-19T04:25:23;9.80;76.20
39601;DHT22;25297;44.758;11.310;2023-11-19T04:27:51;9.80;76.90
39601;DHT22;25297;44.758;11.310;2023-11-19T04:30:17;9.70;77.00
39601;DHT22;25297;44.758;11.310;2023-11-19T04:32:43;9.70;77.20
39601;DHT22;25297;44.758;11.310;2023-11-19T04:35:09;9.70;76.70
39601;DHT22;25297;44.758;11.310;2023-11-19T04:37:35;9.70;77.10
39601;DHT22;25297;44.758;11.310;2023-11-19T04:40:01;9.70;77.10
39601;DHT22;25297;44.758;11.310;2023-11-19T04:42:27;9.70;77.30
39601;DHT22;25297;44.758;11.310;2023-11-19T04:44:52;9.70;76.70
39601;DHT22;25297;44.758;11.310;2023-11-19T04:47:18;9.70;77.20
39601;DHT22;25297;44.758;11.310;2023-11-19T04:49:43;9.70;77.30
39601;DHT22;25297;44.758;11.310;2023-11-19T04:52:09;9.70;77.30
39601;DHT22;25297;44.758;11.310;2023-11-19T04:54:35;9.70;77.00
39601;DHT22;25297;44.758;11.310;2023-11-19T04:57:00;9.70;77.50
39601;DHT22;25297;44.758;11.310;2023-11-19T04:59:26;9.70;77.30
39601;DHT22;25297;44.758;11.310;2023-11-19T05:01:53;9.60;77.30
39601;DHT22;25297;44.758;11.310;2023-11-19T05:04:18;9.60;76.80
39601;DHT22;25297;44.758;11.310;2023-11-19T05:06:44;9.60;77.30
39601;DHT22;25297;44.758;11.310;2023-11-19T05:09:10;9.60;77.40
39601;DHT22;25297;44.758;11.310;2023-11-19T05:11:38;9.60;77.80
39601;DHT22;25297;44.758;11.310;2023-11-19T05:14:04;9.60;76.80
39601;DHT22;25297;44.758;11.310;2023-11-19T05:16:30;9.60;77.30
39601;DHT22;25297;44.758;11.310;2023-11-19T05:18:56;9.70;77.20
39601;DHT22;25297;44.758;11.310;2023-11-19T05:21:22;9.60;77.10
39601;DHT22;25297;44.758;11.310;2023-11-19T05:23:47;9.60;77.30
39601;DHT22;25297;44.758;11.310;2023-11-19T05:26:20;9.60;77.10
39601;DHT22;25297;44.758;11.310;2023-11-19T05:28:47;9.50;77.20
39601;DHT22;25297;44.758;11.310;2023-11-19T05:31:12;9.50;77.20
39601;DHT22;25297;44.758;11.310;2023-11-19T05:33:38;9.50;77.30
39601;DHT22;25297;44.758;11.310;2023-11-19T05:36:05;9.50;77.40
39601;DHT22;25297;44.758;11.310;2023-11-19T05:38:30;9.50;77.30
39601;DHT22;25297;44.758;11.310;2023-11-19T05:40:56;9.50;77.30
39601;DHT22;25297;44.758;11.310;2023-11-19T05:43:22;9.50;77.30
39601;DHT22;25297;44.758;11.310;2023-11-19T05:45:48;9.50;76.80
39601;DHT22;25297;44.758;11.310;2023-11-19T05:48:13;9.50;77.30
39601;DHT22;25297;44.758;11.310;2023-11-19T05:50:39;9.50;77.30
39601;DHT22;25297;44.758;11.310;2023-11-19T05:53:05;9.50;77.10
39601;DHT22;25297;44.758;11.310;2023-11-19T05:55:35;9.40;76.70
39601;DHT22;25297;44.758;11.310;2023-11-19T05:58:01;9.40;77.40
39601;DHT22;25297;44.758;11.310;2023-11-19T06:00:27;9.40;77.40
39601;DHT22;25297;44.758;11.310;2023-11-19T06:02:52;9.50;77.40
39601;DHT22;25297;44.758;11.310;2023-11-19T06:05:18;9.50;77.40
39601;DHT22;25297;44.758;11.310;2023-11-19T06:07:44;9.50;77.60
39601;DHT22;25297;44.758;11.310;2023-11-19T06:10:10;9.50;77.70
39601;DHT22;25297;44.758;11.310;2023-11-19T06:12:36;9.50;77.80
39601;DHT22;25297;44.758;11.310;2023-11-19T06:15:07;9.50;77.30
39601;DHT22;25297;44.758;11.310;2023-11-19T06:17:34;9.50;78.00
39601;DHT22;25297;44.758;11.310;2023-11-19T06:19:59;9.50;78.40
39601;DHT22;25297;44.758;11.310;2023-11-19T06:22:25;9.40;78.00
39601;DHT22;25297;44.758;11.310;2023-11-19T06:24:51;9.40;77.40
39601;DHT22;25297;44.758;11.310;2023-11-19T06:27:16;9.40;77.90
39601;DHT22;25297;44.758;11.310;2023-11-19T06:29:42;9.40;77.60
39601;DHT22;25297;44.758;11.310;2023-11-19T06:32:07;9.40;77.50
39601;DHT22;25297;44.758;11.310;2023-11-19T06:34:34;9.30;77.50
39601;DHT22;25297;44.758;11.310;2023-11-19T06:36:59;9.30;78.20
39601;DHT22;25297;44.758;11.310;2023-11-19T06:39:25;9.30;78.00
39601;DHT22;25297;44.758;11.310;2023-11-19T06:41:52;9.30;77.70
39601;DHT22;25297;44.758;11.310;2023-11-19T06:44:17;9.30;77.60
39601;DHT22;25297;44.758;11.310;2023-11-19T06:46:43;9.30;78.20
39601;DHT22;25297;44.758;11.310;2023-11-19T06:49:09;9.30;78.50
39601;DHT22;25297;44.758;11.310;2023-11-19T06:51:34;9.30;78.40
39601;DHT22;25297;44.758;11.310;2023-11-19T06:54:00;9.30;77.60
39601;DHT22;25297;44.758;11.310;2023-11-19T06:56:26;9.30;78.10
39601;DHT22;25297;44.758;11.310;2023-11-19T06:58:52;9.40;78.00
39601;DHT22;25297;44.758;11.310;2023-11-19T07:01:18;9.40;77.80
39601;DHT22;25297;44.758;11.310;2023-11-19T07:03:45;9.40;77.90
39601;DHT22;25297;44.758;11.310;2023-11-19T07:06:11;9.40;77.60
39601;DHT22;25297;44.758;11.310;2023-11-19T07:08:38;9.30;77.40
39601;DHT22;25297;44.758;11.310;2023-11-19T07:11:04;9.40;77.50
39601;DHT22;25297;44.758;11.310;2023-11-19T07:13:30;9.30;77.70
39601;DHT22;25297;44.758;11.310;2023-11-19T07:15:56;9.40;77.30
39601;DHT22;25297;44.758;11.310;2023-11-19T07:18:22;9.40;77.70
39601;DHT22;25297;44.758;11.310;2023-11-19T07:20:48;9.50;77.90
39601;DHT22;25297;44.758;11.310;2023-11-19T07:23:14;9.50;77.90
39601;DHT22;25297;44.758;11.310;2023-11-19T07:25:42;9.50;77.30
39601;DHT22;25297;44.758;11.310;2023-11-19T07:28:10;9.50;78.00
39601;DHT22;25297;44.758;11.310;2023-11-19T07:30:35;9.60;78.10
39601;DHT22;25297;44.758;11.310;2023-11-19T07:33:01;9.70;78.40
39601;DHT22;25297;44.758;11.310;2023-11-19T07:35:29;9.70;77.40
39601;DHT22;25297;44.758;11.310;2023-11-19T07:37:56;9.70;77.50
39601;DHT22;25297;44.758;11.310;2023-11-19T07:40:23;9.80;77.40
39601;DHT22;25297;44.758;11.310;2023-11-19T07:42:49;9.90;77.30
39601;DHT22;25297;44.758;11.310;2023-11-19T07:45:15;9.90;76.80
39601;DHT22;25297;44.758;11.310;2023-11-19T07:47:40;10.00;77.20
39601;DHT22;25297;44.758;11.310;2023-11-19T07:50:06;10.00;77.50
39601;DHT22;25297;44.758;11.310;2023-11-19T07:52:32;10.10;78.00
39601;DHT22;25297;44.758;11.310;2023-11-19T07:54:58;10.10;77.50
39601;DHT22;25297;44.758;11.310;2023-11-19T07:57:23;10.10;77.10
39601;DHT22;25297;44.758;11.310;2023-11-19T07:59:50;10.20;77.50
39601;DHT22;25297;44.758;11.310;2023-11-19T08:02:15;10.30;78.20
39601;DHT22;25297;44.758;11.310;2023-11-19T08:04:41;10.30;78.40
39601;DHT22;25297;44.758;11.310;2023-11-19T08:07:10;10.40;77.90
39601;DHT22;25297;44.758;11.310;2023-11-19T08:09:36;10.40;77.80
39601;DHT22;25297;44.758;11.310;2023-11-19T08:12:03;10.50;78.00
39601;DHT22;25297;44.758;11.310;2023-11-19T08:14:29;10.50;78.20
39601;DHT22;25297;44.758;11.310;2023-11-19T08:16:54;10.60;78.30
39601;DHT22;25297;44.758;11.310;2023-11-19T08:19:20;10.60;77.80
39601;DHT22;25297;44.758;11.310;2023-11-19T08:21:46;10.70;77.30
39601;DHT22;25297;44.758;11.310;2023-11-19T08:24:11;10.70;77.50
39601;DHT22;25297;44.758;11.310;2023-11-19T08:26:37;10.80;77.40
39601;DHT22;25297;44.758;11.310;2023-11-19T08:29:02;10.90;77.40
39601;DHT22;25297;44.758;11.310;2023-11-19T08:31:28;10.90;77.60
39601;DHT22;25297;44.758;11.310;2023-11-19T08:33:54;11.00;78.50
39601;DHT22;25297;44.758;11.310;2023-11-19T08:36:20;11.00;77.90
39601;DHT22;25297;44.758;11.310;2023-11-19T08:38:46;11.10;77.90
39601;DHT22;25297;44.758;11.310;2023-11-19T08:41:12;11.10;77.60
39601;DHT22;25297;44.758;11.310;2023-11-19T08:43:38;11.20;77.60
39601;DHT22;25297;44.758;11.310;2023-11-19T08:46:09;11.20;77.40
39601;DHT22;25297;44.758;11.310;2023-11-19T08:48:35;11.20;77.20
39601;DHT22;25297;44.758;11.310;2023-11-19T08:51:01;11.30;77.70
39601;DHT22;25297;44.758;11.310;2023-11-19T08:53:26;11.30;77.90
39601;DHT22;25297;44.758;11.310;2023-11-19T08:55:52;11.30;77.00
39601;DHT22;25297;44.758;11.310;2023-11-19T08:58:18;11.40;77.70
39601;DHT22;25297;44.758;11.310;2023-11-19T09:00:43;11.40;77.80
39601;DHT22;25297;44.758;11.310;2023-11-19T09:03:09;11.40;78.30
39601;DHT22;25297;44.758;11.310;2023-11-19T09:05:35;11.50;78.10
39601;DHT22;25297;44.758;11.310;2023-11-19T09:08:00;11.60;78.70
39601;DHT22;25297;44.758;11.310;2023-11-19T09:10:26;11.60;79.00
39601;DHT22;25297;44.758;11.310;2023-11-19T09:12:52;11.70;78.70
39601;DHT22;25297;44.758;11.310;2023-11-19T09:15:18;11.90;78.10
39601;DHT22;25297;44.758;11.310;2023-11-19T09:17:43;12.00;77.50
39601;DHT22;25297;44.758;11.310;2023-11-19T09:20:09;12.10;76.90
39601;DHT22;25297;44.758;11.310;2023-11-19T09:22:37;12.20;75.70
39601;DHT22;25297;44.758;11.310;2023-11-19T09:25:04;12.20;76.00
39601;DHT22;25297;44.758;11.310;2023-11-19T09:27:30;12.30;75.90
39601;DHT22;25297;44.758;11.310;2023-11-19T09:29:56;12.40;75.50
39601;DHT22;25297;44.758;11.310;2023-11-19T09:32:23;12.40;74.70
39601;DHT22;25297;44.758;11.310;2023-11-19T09:34:49;12.50;75.60
39601;DHT22;25297;44.758;11.310;2023-11-19T09:37:15;12.50;75.60
39601;DHT22;25297;44.758;11.310;2023-11-19T09:39:41;12.50;75.60
39601;DHT22;25297;44.758;11.310;2023-11-19T09:42:09;12.60;75.50
39601;DHT22;25297;44.758;11.310;2023-11-19T09:44:37;12.60;76.30
39601;DHT22;25297;44.758;11.310;2023-11-19T09:47:04;12.60;76.50
39601;DHT22;25297;44.758;11.310;2023-11-19T09:49:31;12.60;76.80
39601;DHT22;25297;44.758;11.310;2023-11-19T09:51:57;12.70;77.00
39601;DHT22;25297;44.758;11.310;2023-11-19T09:54:23;12.70;75.50
39601;DHT22;25297;44.758;11.310;2023-11-19T09:56:48;12.70;75.80
39601;DHT22;25297;44.758;11.310;2023-11-19T09:59:15;12.80;75.70
39601;DHT22;25297;44.758;11.310;2023-11-19T10:01:41;12.80;75.70
39601;DHT22;25297;44.758;11.310;2023-11-19T10:04:08;12.90;76.30
39601;DHT22;25297;44.758;11.310;2023-11-19T10:06:34;12.90;76.40
39601;DHT22;25297;44.758;11.310;2023-11-19T10:09:00;12.90;76.50
39601;DHT22;25297;44.758;11.310;2023-11-19T10:11:26;12.90;76.20
39601;DHT22;25297;44.758;11.310;2023-11-19T10:13:53;12.90;76.30
39601;DHT22;25297;44.758;11.310;2023-11-19T10:16:19;13.00;76.50
39601;DHT22;25297;44.758;11.310;2023-11-19T10:18:46;13.00;76.40
39601;DHT22;25297;44.758;11.310;2023-11-19T10:21:15;13.10;76.80
39601;DHT22;25297;44.758;11.310;2023-11-19T10:26:19;13.10;76.70
39601;DHT22;25297;44.758;11.310;2023-11-19T10:28:46;13.10;76.50
39601;DHT22;25297;44.758;11.310;2023-11-19T10:31:16;13.20;75.90
39601;DHT22;25297;44.758;11.310;2023-11-19T10:33:42;13.20;76.40
39601;DHT22;25297;44.758;11.310;2023-11-19T10:36:11;13.20;76.20
39601;DHT22;25297;44.758;11.310;2023-11-19T10:38:38;13.30;76.30
39601;DHT22;25297;44.758;11.310;2023-11-19T10:41:04;13.30;76.50
39601;DHT22;25297;44.758;11.310;2023-11-19T10:43:30;13.40;76.40
39601;DHT22;25297;44.758;11.310;2023-11-19T10:46:16;13.30;74.30
39601;DHT22;25297;44.758;11.310;2023-11-19T10:48:46;13.40;74.50
39601;DHT22;25297;44.758;11.310;2023-11-19T10:51:13;13.40;73.70
39601;DHT22;25297;44.758;11.310;2023-11-19T10:53:47;13.40;74.40
39601;DHT22;25297;44.758;11.310;2023-11-19T10:56:16;13.50;75.00
39601;DHT22;25297;44.758;11.310;2023-11-19T10:58:45;13.50;74.40
39601;DHT22;25297;44.758;11.310;2023-11-19T11:01:20;13.60;74.40
39601;DHT22;25297;44.758;11.310;2023-11-19T11:03:51;13.60;74.30
39601;DHT22;25297;44.758;11.310;2023-11-19T11:06:18;13.60;74.60
39601;DHT22;25297;44.758;11.310;2023-11-19T11:08:46;13.60;74.60
39601;DHT22;25297;44.758;11.310;2023-11-19T11:11:15;13.70;75.00
39601;DHT22;25297;44.758;11.310;2023-11-19T11:13:43;13.80;74.70
39601;DHT22;25297;44.758;11.310;2023-11-19T11:16:09;13.70;74.40
39601;DHT22;25297;44.758;11.310;2023-11-19T11:18:36;13.80;74.30
39601;DHT22;25297;44.758;11.310;2023-11-19T11:21:14;13.80;74.80
39601;DHT22;25297;44.758;11.310;2023-11-19T11:23:46;13.90;74.30
39601;DHT22;25297;44.758;11.310;2023-11-19T11:26:35;13.90;73.30
39601;DHT22;25297;44.758;11.310;2023-11-19T11:29:31;13.90;73.50
39601;DHT22;25297;44.758;11.310;2023-11-19T11:37:55;14.10;74.90
39601;DHT22;25297;44.758;11.310;2023-11-19T11:40:24;14.20;74.30
39601;DHT22;25297;44.758;11.310;2023-11-19T11:42:52;14.20;73.90
39601;DHT22;25297;44.758;11.310;2023-11-19T11:45:18;14.20;73.60
39601;DHT22;25297;44.758;11.310;2023-11-19T11:50:20;14.30;74.50
39601;DHT22;25297;44.758;11.310;2023-11-19T11:58:18;14.50;73.80
39601;DHT22;25297;44.758;11.310;2023-11-19T12:00:47;14.50;74.40
39601;DHT22;25297;44.758;11.310;2023-11-19T12:03:13;14.50;73.80
39601;DHT22;25297;44.758;11.310;2023-11-19T12:05:41;14.60;73.50
39601;DHT22;25297;44.758;11.310;2023-11-19T12:08:07;14.60;73.50
39601;DHT22;25297;44.758;11.310;2023-11-19T12:10:49;14.60;74.50
39601;DHT22;25297;44.758;11.310;2023-11-19T12:13:16;14.70;74.40
39601;DHT22;25297;44.758;11.310;2023-11-19T12:18:31;14.80;73.60
39601;DHT22;25297;44.758;11.310;2023-11-19T12:20:58;14.80;73.60
39601;DHT22;25297;44.758;11.310;2023-11-19T12:23:31;14.90;73.60
39601;DHT22;25297;44.758;11.310;2023-11-19T12:25:57;14.90;74.50
39601;DHT22;25297;44.758;11.310;2023-11-19T12:28:24;15.00;73.70
39601;DHT22;25297;44.758;11.310;2023-11-19T12:30:52;15.10;73.70
39601;DHT22;25297;44.758;11.310;2023-11-19T12:33:19;15.20;73.90
39601;DHT22;25297;44.758;11.310;2023-11-19T12:35:47;15.20;73.30
39601;DHT22;25297;44.758;11.310;2023-11-19T12:38:23;15.30;73.20
39601;DHT22;25297;44.758;11.310;2023-11-19T12:41:09;15.40;73.10
39601;DHT22;25297;44.758;11.310;2023-11-19T12:43:38;15.50;73.10
39601;DHT22;25297;44.758;11.310;2023-11-19T12:46:24;15.60;73.10
39601;DHT22;25297;44.758;11.310;2023-11-19T12:48:52;15.80;73.00
39601;DHT22;25297;44.758;11.310;2023-11-19T12:51:18;15.90;73.10
39601;DHT22;25297;44.758;11.310;2023-11-19T12:53:51;16.00;73.30
39601;DHT22;25297;44.758;11.310;2023-11-19T12:56:21;16.10;72.90
39601;DHT22;25297;44.758;11.310;2023-11-19T12:58:48;16.30;72.40
39601;DHT22;25297;44.758;11.310;2023-11-19T13:01:18;16.50;72.40
39601;DHT22;25297;44.758;11.310;2023-11-19T13:03:45;16.70;72.30
39601;DHT22;25297;44.758;11.310;2023-11-19T13:06:14;16.90;71.80
39601;DHT22;25297;44.758;11.310;2023-11-19T13:08:43;17.10;71.30
39601;DHT22;25297;44.758;11.310;2023-11-19T13:11:12;17.30;71.70
39601;DHT22;25297;44.758;11.310;2023-11-19T13:13:58;17.40;71.70
39601;DHT22;25297;44.758;11.310;2023-11-19T13:16:26;17.50;71.40
39601;DHT22;25297;44.758;11.310;2023-11-19T13:18:52;17.60;70.90
39601;DHT22;25297;44.758;11.310;2023-11-19T13:21:18;17.60;71.60
39601;DHT22;25297;44.758;11.310;2023-11-19T13:23:44;17.60;71.10
39601;DHT22;25297;44.758;11.310;2023-11-19T13:26:10;17.60;70.50
39601;DHT22;25297;44.758;11.310;2023-11-19T13:28:37;17.50;70.10
39601;DHT22;25297;44.758;11.310;2023-11-19T13:31:03;17.40;70.20
39601;DHT22;25297;44.758;11.310;2023-11-19T13:33:29;17.40;70.60
39601;DHT22;25297;44.758;11.310;2023-11-19T13:35:57;17.30;70.70
39601;DHT22;25297;44.758;11.310;2023-11-19T13:38:23;17.30;70.90
39601;DHT22;25297;44.758;11.310;2023-11-19T13:40:49;17.20;71.00
39601;DHT22;25297;44.758;11.310;2023-11-19T13:43:16;17.20;70.90
39601;DHT22;25297;44.758;11.310;2023-11-19T13:45:42;17.20;70.80
39601;DHT22;25297;44.758;11.310;2023-11-19T13:48:07;17.20;70.70
39601;DHT22;25297;44.758;11.310;2023-11-19T13:50:34;17.20;71.20
39601;DHT22;25297;44.758;11.310;2023-11-19T13:53:00;17.20;72.10
39601;DHT22;25297;44.758;11.310;2023-11-19T13:55:25;17.10;72.20
39601;DHT22;25297;44.758;11.310;2023-11-19T13:57:51;17.10;72.10
39601;DHT22;25297;44.758;11.310;2023-11-19T14:00:17;17.10;71.80
39601;DHT22;25297;44.758;11.310;2023-11-19T14:02:47;17.00;71.80
39601;DHT22;25297;44.758;11.310;2023-11-19T14:05:13;16.90;72.20
39601;DHT22;25297;44.758;11.310;2023-11-19T14:07:41;16.90;72.30
39601;DHT22;25297;44.758;11.310;2023-11-19T14:10:08;16.90;72.40
39601;DHT22;25297;44.758;11.310;2023-11-19T14:12:37;16.80;72.70
39601;DHT22;25297;44.758;11.310;2023-11-19T14:15:04;16.80;72.70
39601;DHT22;25297;44.758;11.310;2023-11-19T14:17:31;16.80;72.60
39601;DHT22;25297;44.758;11.310;2023-11-19T14:19:57;16.80;72.60
39601;DHT22;25297;44.758;11.310;2023-11-19T14:22:22;16.80;72.80
39601;DHT22;25297;44.758;11.310;2023-11-19T14:24:48;16.70;72.70
39601;DHT22;25297;44.758;11.310;2023-11-19T14:27:14;16.70;74.00
39601;DHT22;25297;44.758;11.310;2023-11-19T14:29:39;16.70;74.20
39601;DHT22;25297;44.758;11.310;2023-11-19T14:32:06;16.70;74.00
39601;DHT22;25297;44.758;11.310;2023-11-19T14:34:32;16.70;73.40
39601;DHT22;25297;44.758;11.310;2023-11-19T14:36:58;16.70;72.90
39601;DHT22;25297;44.758;11.310;2023-11-19T14:39:24;16.60;72.60
39601;DHT22;25297;44.758;11.310;2023-11-19T14:41:50;16.60;72.80
39601;DHT22;25297;44.758;11.310;2023-11-19T14:44:16;16.60;72.90
39601;DHT22;25297;44.758;11.310;2023-11-19T14:46:42;16.60;74.00
39601;DHT22;25297;44.758;11.310;2023-11-19T14:49:07;16.60;73.70
39601;DHT22;25297;44.758;11.310;2023-11-19T14:51:39;16.50;74.90
39601;DHT22;25297;44.758;11.310;2023-11-19T14:54:05;16.50;75.80
39601;DHT22;25297;44.758;11.310;2023-11-19T14:56:31;16.50;75.70
39601;DHT22;25297;44.758;11.310;2023-11-19T14:58:56;16.50;77.10
39601;DHT22;25297;44.758;11.310;2023-11-19T15:01:22;16.50;77.00
39601;DHT22;25297;44.758;11.310;2023-11-19T15:03:48;16.50;77.00
39601;DHT22;25297;44.758;11.310;2023-11-19T15:06:13;16.40;77.20
39601;DHT22;25297;44.758;11.310;2023-11-19T15:08:40;16.40;77.70
39601;DHT22;25297;44.758;11.310;2023-11-19T15:11:07;16.40;77.90
39601;DHT22;25297;44.758;11.310;2023-11-19T15:13:34;16.30;77.60
39601;DHT22;25297;44.758;11.310;2023-11-19T15:16:02;16.30;77.40
39601;DHT22;25297;44.758;11.310;2023-11-19T15:18:29;16.30;77.90
39601;DHT22;25297;44.758;11.310;2023-11-19T15:20:54;16.20;78.20
39601;DHT22;25297;44.758;11.310;2023-11-19T15:23:20;16.30;78.40
39601;DHT22;25297;44.758;11.310;2023-11-19T15:25:46;16.20;79.20
39601;DHT22;25297;44.758;11.310;2023-11-19T15:28:11;16.20;79.40
39601;DHT22;25297;44.758;11.310;2023-11-19T15:30:37;16.10;79.40
39601;DHT22;25297;44.758;11.310;2023-11-19T15:33:02;16.10;79.50
39601;DHT22;25297;44.758;11.310;2023-11-19T15:35:28;16.00;79.30
39601;DHT22;25297;44.758;11.310;2023-11-19T15:37:54;16.00;80.20
39601;DHT22;25297;44.758;11.310;2023-11-19T15:40:21;15.90;79.90